ADDS METAR Data INFO
IDs: Format: Raw Decoded Include TAF

Data at: 1120 UTC 17 Jul 2018

K04W 171115Z AUTO 00000KT 10SM CLR 11/11 A3014 RMK AO2
K04W 171055Z AUTO 00000KT 10SM CLR 11/11 A3013 RMK AO2
K04W 171035Z AUTO 00000KT 10SM CLR 10/10 A3013 RMK AO2
K04W 171015Z AUTO 00000KT 10SM CLR 11/11 A3013 RMK AO2
K04W 170955Z AUTO 00000KT 10SM CLR 11/11 A3012 RMK AO2
K04W 170935Z AUTO 00000KT 10SM CLR 11/11 A3011 RMK AO2
K04W 170915Z AUTO 00000KT 10SM CLR 11/11 A3011 RMK AO2
K04W 170855Z AUTO 00000KT 10SM CLR 11/11 A3011 RMK AO2
K04W 170835Z AUTO 00000KT 10SM CLR 11/11 A3011 RMK AO2
K04W 170815Z AUTO 00000KT 10SM CLR 11/11 A3010 RMK AO2
K04W 170755Z AUTO 00000KT 10SM CLR 12/12 A3010 RMK AO2
K04W 170735Z AUTO 00000KT 10SM CLR 12/12 A3010 RMK AO2
K04W 170715Z AUTO 00000KT 10SM CLR 12/12 A3010 RMK AO2
K04W 170655Z AUTO 00000KT 10SM CLR 12/12 A3009 RMK AO2
K04W 170635Z AUTO 00000KT 10SM CLR 13/12 A3009 RMK AO2
K04W 170615Z AUTO 00000KT 10SM CLR 14/12 A3009 RMK AO2
K04W 170555Z AUTO 34003KT 10SM CLR 15/12 A3008 RMK AO2
K04W 170535Z AUTO 34004KT 10SM CLR 15/12 A3008 RMK AO2
K04W 170515Z AUTO 34003KT 10SM CLR 15/12 A3008 RMK AO2
K04W 170455Z AUTO 35003KT 10SM CLR 15/12 A3008 RMK AO2
K04W 170435Z AUTO 35005KT 10SM CLR 15/12 A3007 RMK AO2
K04W 170415Z AUTO 35004KT 10SM CLR 15/13 A3007 RMK AO2
K04W 170355Z AUTO 33004KT 10SM CLR 16/13 A3007 RMK AO2
K04W 170335Z AUTO 33003KT 10SM CLR 16/13 A3006 RMK AO2
K04W 170315Z AUTO 34003KT 10SM CLR 17/13 A3006 RMK AO2
K04W 170255Z AUTO 34003KT 10SM CLR 17/13 A3005 RMK AO2
K04W 170235Z AUTO 34003KT 10SM CLR 18/13 A3003 RMK AO2
K04W 170215Z AUTO 36003KT 10SM CLR 18/13 A3002 RMK AO2
K04W 170155Z AUTO 34004KT 10SM CLR 20/13 A3001 RMK AO2
K04W 170135Z AUTO 34003KT 10SM CLR 21/13 A3001 RMK AO2
K04W 170115Z AUTO 35005KT 10SM CLR 22/13 A3001 RMK AO2
K04W 170055Z AUTO 33009KT 10SM CLR 23/13 A3000 RMK AO2
K04W 170035Z AUTO 31004KT 10SM CLR 24/13 A3000 RMK AO2
K04W 170015Z AUTO 31006KT 10SM CLR 25/13 A3000 RMK AO2
K04W 162355Z AUTO 30008KT 10SM CLR 25/13 A3000 RMK AO2
K04W 162335Z AUTO 30007KT 10SM CLR 26/13 A3000 RMK AO2
K04W 162315Z AUTO 28009G15KT 10SM CLR 26/13 A3000 RMK AO2
K04W 162255Z AUTO 30009KT 10SM CLR 26/12 A3000 RMK AO2
K04W 162235Z AUTO 28008G15KT 10SM CLR 26/13 A3000 RMK AO2
K04W 162215Z AUTO 30010G15KT 10SM CLR 26/13 A3000 RMK AO2
K04W 162155Z AUTO 30010G16KT 10SM CLR 26/13 A3000 RMK AO2
K04W 162135Z AUTO 29009G18KT 10SM CLR 26/13 A3001 RMK AO2
K04W 162115Z AUTO 29010G18KT 10SM CLR 26/12 A3000 RMK AO2
K04W 162055Z AUTO 30009G18KT 10SM CLR 26/12 A3001 RMK AO2
K04W 162035Z AUTO 28014G22KT 10SM CLR 26/12 A3001 RMK AO2
K04W 162015Z AUTO 29011G16KT 10SM CLR 26/12 A3001 RMK AO2
K04W 161955Z AUTO 28012G22KT 10SM CLR 26/12 A3001 RMK AO2
K04W 161935Z AUTO 28009G18KT 10SM CLR 26/13 A3001 RMK AO2
K04W 161915Z AUTO 28010G16KT 250V310 10SM CLR 26/13 A3001 RMK AO2
K04W 161855Z AUTO 28012G22KT 10SM CLR 26/12 A3001 RMK AO2
K04W 161835Z AUTO 29008G14KT 10SM CLR 26/14 A3001 RMK AO2
K04W 161815Z AUTO 27010G15KT 10SM CLR 26/15 A3001 RMK AO2
K04W 161755Z AUTO 27009G17KT 10SM CLR 26/14 A3001 RMK AO2
K04W 161735Z AUTO 27009G16KT 10SM CLR 26/15 A3001 RMK AO2
K04W 161715Z AUTO 28008G16KT 10SM CLR 26/14 A3001 RMK AO2
K04W 161655Z AUTO 28008G18KT 10SM CLR 26/14 A3001 RMK AO2
K04W 161635Z AUTO 28011G17KT 10SM CLR 26/14 A3001 RMK AO2
K04W 161615Z AUTO 28007KT 10SM CLR 25/15 A3001 RMK AO2
K04W 161555Z AUTO 27011G16KT 10SM CLR 25/14 A3001 RMK AO2
K04W 161535Z AUTO 27012G15KT 10SM CLR 25/14 A3001 RMK AO2
K04W 161515Z AUTO 26010G15KT 10SM CLR 23/14 A3001 RMK AO2
K04W 161455Z AUTO 26010KT 10SM CLR 23/15 A3001 RMK AO2
K04W 161435Z AUTO 26008KT 10SM CLR 22/15 A3001 RMK AO2
K04W 161415Z AUTO 25006KT 10SM CLR 21/15 A3001 RMK AO2
K04W 161355Z AUTO 26006KT 10SM CLR 21/16 A3001 RMK AO2
K04W 161335Z AUTO 26008KT 10SM CLR 20/15 A3001 RMK AO2
K04W 161315Z AUTO 25007KT 10SM CLR 19/16 A3001 RMK AO2
K04W 161255Z AUTO 26007KT 10SM CLR 18/16 A3001 RMK AO2
K04W 161235Z AUTO 25004KT 10SM CLR 17/16 A3001 RMK AO2
K04W 161216Z AUTO 00000KT 10SM CLR 16/15 A3001 RMK AO2
K04W 161155Z AUTO 00000KT 10SM CLR 15/15 A3001 RMK AO2
K04W 161135Z AUTO 19003KT 10SM CLR 13/13 A3001 RMK AO2
K04W 161116Z AUTO 00000KT 10SM CLR 13/13 A3001 RMK AO2
K04W 161055Z AUTO 26003KT 10SM CLR 12/12 A3000 RMK AO2
K04W 161035Z AUTO 00000KT 10SM CLR 12/12 A3000 RMK AO2
K04W 161016Z AUTO 00000KT 10SM CLR 12/12 A3000 RMK AO2
K04W 160955Z AUTO 22003KT 10SM CLR 12/12 A3000 RMK AO2
K04W 160935Z AUTO 21003KT 10SM CLR 13/13 A3000 RMK AO2
K04W 160916Z AUTO 00000KT 3SM BR CLR 13/13 A3000 RMK AO2
K04W 160855Z AUTO 00000KT 4SM BR CLR 13/13 A3000 RMK AO2
K04W 160835Z AUTO 00000KT 4SM BR CLR 13/13 A3001 RMK AO2
K04W 160816Z AUTO 00000KT 10SM CLR 13/13 A3001 RMK AO2
K04W 160755Z AUTO 00000KT 10SM CLR 13/13 A3000 RMK AO2
K04W 160735Z AUTO 00000KT 10SM CLR 15/14 A3001 RMK AO2
K04W 160715Z AUTO 00000KT 10SM CLR 14/13 A3001 RMK AO2
K04W 160655Z AUTO 00000KT 10SM CLR 15/14 A3001 RMK AO2
K04W 160635Z AUTO 00000KT 10SM CLR 15/14 A3001 RMK AO2
K04W 160615Z AUTO 28003KT 10SM CLR 16/15 A3001 RMK AO2
K04W 160555Z AUTO 00000KT 10SM CLR 16/15 A3001 RMK AO2
K04W 160535Z AUTO 28003KT 10SM CLR 17/15 A3001 RMK AO2
K04W 160515Z AUTO 00000KT 10SM CLR 17/15 A3001 RMK AO2
K04W 160455Z AUTO 29003KT 10SM CLR 17/16 A3001 RMK AO2
K04W 160435Z AUTO 29003KT 10SM CLR 18/16 A3001 RMK AO2
K04W 160415Z AUTO 30003KT 10SM CLR 18/16 A3000 RMK AO2
K04W 160355Z AUTO 30004KT 10SM CLR 18/16 A2999 RMK AO2
K04W 160335Z AUTO 31004KT 10SM CLR 19/16 A2999 RMK AO2
K04W 160315Z AUTO 30005KT 10SM CLR 20/16 A2999 RMK AO2
K04W 160255Z AUTO 30005KT 10SM CLR 20/16 A2998 RMK AO2
K04W 160235Z AUTO 30004KT 10SM CLR 20/17 A2998 RMK AO2
K04W 160215Z AUTO 30003KT 10SM CLR 20/17 A2997 RMK AO2
K04W 160155Z AUTO 28003KT 10SM CLR 21/17 A2997 RMK AO2
K04W 160135Z AUTO 26003KT 10SM CLR 22/18 A2997 RMK AO2
K04W 160115Z AUTO 28004KT 10SM CLR 22/18 A2997 RMK AO2
K04W 160055Z AUTO 30005KT 10SM CLR 22/18 A2997 RMK AO2
K04W 160035Z AUTO 30005KT 10SM CLR 22/19 A2996 RMK AO2
K04W 160015Z AUTO 31004KT 10SM CLR 23/19 A2996 RMK AO2
K04W 152355Z AUTO 31007KT 10SM SCT034 23/19 A2995 RMK AO2
K04W 152335Z AUTO 32008KT 10SM SCT034 23/19 A2996 RMK AO2